Time;durP1;ratioP1;P1;durP2;ratioP2;P2;SDS_P1;SDS_P2;PMS_P1;PMS_P2;Temp;Humidity;BMP_temperature;BMP_pressure;BME280_temperature;BME280_humidity;BME280_pressure;Samples;Min_cycle;Max_cycle;Signal;HPM_P1;HPM_P2
2024/02/20 00:00:31;;;;;;;18.30;10.80;;;;;;;;;;5002887;28;20038;-75
2024/02/20 00:02:58;;;;;;;22.10;13.35;;;;;;;;;;4999994;28;20103;-74
2024/02/20 00:05:25;;;;;;;18.58;10.18;;;;;;;;;;5004060;28;20038;-76
2024/02/20 00:07:55;;;;;;;16.40;9.25;;;;;;;;;;4998397;28;20811;-76
2024/02/20 00:10:23;;;;;;;17.00;9.82;;;;;;;;;;5004316;28;20034;-76
2024/02/20 00:12:52;;;;;;;16.67;8.77;;;;;;;;;;4996764;28;20050;-76
2024/02/20 00:15:18;;;;;;;18.00;8.63;;;;;;;;;;4999444;28;20090;-76
2024/02/20 00:17:44;;;;;;;15.25;8.40;;;;;;;;;;5002594;28;20540;-76
2024/02/20 00:20:11;;;;;;;14.27;8.07;;;;;;;;;;5002195;28;20038;-76
2024/02/20 00:22:39;;;;;;;16.80;7.80;;;;;;;;;;5001236;28;20064;-76
2024/02/20 00:25:05;;;;;;;14.75;7.50;;;;;;;;;;4984567;28;20052;-77
2024/02/20 00:27:33;;;;;;;;;;;;;;;;;;5001649;28;20734;-76
2024/02/20 00:30:00;;;;;;;;;;;;;;;;;;5003385;28;20002;-76
2024/02/20 00:32:27;;;;;;;13.65;6.70;;;;;;;;;;5006947;28;19916;-76
2024/02/20 00:34:55;;;;;;;15.52;7.78;;;;;;;;;;4999576;28;20197;-76
2024/02/20 00:37:23;;;;;;;15.35;7.50;;;;;;;;;;5004528;28;20100;-76
2024/02/20 00:39:49;;;;;;;14.15;6.65;;;;;;;;;;5004286;28;20628;-76
2024/02/20 00:42:15;;;;;;;13.82;6.70;;;;;;;;;;5018561;28;20093;-77
2024/02/20 00:44:41;;;;;;;14.00;6.80;;;;;;;;;;5005813;28;20083;-77
2024/02/20 00:47:09;;;;;;;14.65;6.90;;;;;;;;;;5005283;28;20040;-77
2024/02/20 00:49:40;;;;;;;17.05;7.05;;;;;;;;;;5005816;28;20149;-77
2024/02/20 00:52:06;;;;;;;16.15;8.07;;;;;;;;;;5019808;28;20024;-77
2024/02/20 00:54:33;;;;;;;15.95;7.18;;;;;;;;;;5002622;28;20049;-77
2024/02/20 00:57:00;;;;;;;15.63;7.10;;;;;;;;;;4998725;28;20086;-77
2024/02/20 00:59:27;;;;;;;15.52;6.32;;;;;;;;;;5003405;28;20041;-77
2024/02/20 01:01:53;;;;;;;14.95;6.78;;;;;;;;;;5018581;28;20032;-76
2024/02/20 01:04:21;;;;;;;15.52;6.53;;;;;;;;;;5016221;28;20037;-76
2024/02/20 01:06:48;;;;;;;17.50;7.03;;;;;;;;;;5013394;28;20049;-77
2024/02/20 01:09:15;;;;;;;17.08;7.75;;;;;;;;;;5017445;28;20048;-76
2024/02/20 01:11:44;;;;;;;14.27;6.88;;;;;;;;;;5016621;28;20029;-76
2024/02/20 01:14:11;;;;;;;13.30;6.80;;;;;;;;;;5000911;28;20041;-77
2024/02/20 01:16:38;;;;;;;13.75;6.78;;;;;;;;;;5018176;28;20025;-77
2024/02/20 01:19:07;;;;;;;14.63;6.68;;;;;;;;;;5019687;28;20029;-77
2024/02/20 01:21:33;;;;;;;17.02;6.90;;;;;;;;;;5020654;28;20025;-76
2024/02/20 01:24:02;;;;;;;15.07;6.90;;;;;;;;;;5017048;28;20038;-77
2024/02/20 01:26:30;;;;;;;13.98;7.00;;;;;;;;;;5018535;28;20075;-77
2024/02/20 01:28:59;;;;;;;15.23;6.47;;;;;;;;;;5014776;28;20105;-76
2024/02/20 01:31:27;;;;;;;14.77;5.95;;;;;;;;;;5002464;28;20500;-77
2024/02/20 01:33:54;;;;;;;13.43;5.78;;;;;;;;;;5015582;28;20067;-76
2024/02/20 01:36:24;;;;;;;13.60;6.00;;;;;;;;;;5017992;28;20432;-77
2024/02/20 01:38:51;;;;;;;13.85;5.68;;;;;;;;;;5015392;28;20037;-77
2024/02/20 01:41:18;;;;;;;16.48;5.88;;;;;;;;;;5004841;28;20025;-77
2024/02/20 01:43:45;;;;;;;12.48;5.40;;;;;;;;;;5020222;28;20056;-77
2024/02/20 01:46:13;;;;;;;11.27;4.90;;;;;;;;;;4989522;28;20118;-77
2024/02/20 01:48:39;;;;;;;11.93;4.80;;;;;;;;;;5012718;28;20025;-76
2024/02/20 01:51:06;;;;;;;12.35;4.13;;;;;;;;;;5016892;28;20498;-76
2024/02/20 01:53:33;;;;;;;11.98;4.57;;;;;;;;;;5019573;28;20075;-76
2024/02/20 01:56:00;;;;;;;9.88;3.78;;;;;;;;;;5012341;28;20041;-76
2024/02/20 01:58:28;;;;;;;9.63;3.70;;;;;;;;;;5006130;28;20509;-76
2024/02/20 02:00:55;;;;;;;10.43;4.00;;;;;;;;;;5020732;28;20099;-77
2024/02/20 02:03:22;;;;;;;10.70;3.92;;;;;;;;;;5007142;28;20409;-76
2024/02/20 02:05:50;;;;;;;8.23;3.30;;;;;;;;;;5001723;28;20033;-76
2024/02/20 02:08:18;;;;;;;9.63;3.28;;;;;;;;;;5015671;28;20029;-78
2024/02/20 02:10:45;;;;;;;10.60;3.38;;;;;;;;;;5006945;28;20025;-75
2024/02/20 02:13:11;;;;;;;10.68;3.40;;;;;;;;;;5006439;28;20058;-76
2024/02/20 02:15:37;;;;;;;9.75;3.50;;;;;;;;;;5009844;28;20033;-76
2024/02/20 02:18:05;;;;;;;8.10;3.15;;;;;;;;;;5003277;28;20104;-78
2024/02/20 02:20:31;;;;;;;8.32;3.08;;;;;;;;;;5018764;28;20037;-78
2024/02/20 02:22:58;;;;;;;8.05;2.75;;;;;;;;;;5015801;28;20037;-77
2024/02/20 02:25:25;;;;;;;8.80;3.05;;;;;;;;;;5002389;28;20049;-76
2024/02/20 02:27:53;;;;;;;8.57;2.70;;;;;;;;;;5003350;28;20037;-76
2024/02/20 02:30:19;;;;;;;8.35;2.97;;;;;;;;;;5021404;28;20037;-75
2024/02/20 02:32:45;;;;;;;7.45;2.78;;;;;;;;;;5022295;28;20037;-76
2024/02/20 02:35:12;;;;;;;9.23;2.85;;;;;;;;;;5002762;28;20119;-75
2024/02/20 02:37:39;;;;;;;;;;;;;;;;;;5015959;28;20155;-75
2024/02/20 02:40:05;;;;;;;8.95;2.95;;;;;;;;;;5009998;28;19913;-76
2024/02/20 02:42:34;;;;;;;9.95;3.35;;;;;;;;;;5024198;28;20041;-75
2024/02/20 02:45:04;;;;;;;9.18;3.45;;;;;;;;;;5020109;28;20086;-76
2024/02/20 02:47:30;;;;;;;8.07;3.15;;;;;;;;;;5023693;28;20107;-76
2024/02/20 02:49:58;;;;;;;9.20;3.88;;;;;;;;;;5018319;28;20035;-76
2024/02/20 02:52:27;;;;;;;9.55;3.60;;;;;;;;;;5020516;28;20222;-76
2024/02/20 02:54:54;;;;;;;11.48;4.03;;;;;;;;;;5014493;28;20099;-76
2024/02/20 02:57:21;;;;;;;8.85;3.20;;;;;;;;;;5006482;28;20049;-76
2024/02/20 02:59:49;;;;;;;10.18;3.97;;;;;;;;;;4999815;28;20037;-76
2024/02/20 03:02:16;;;;;;;8.57;2.88;;;;;;;;;;5019637;28;20020;-76
2024/02/20 03:04:49;;;;;;;7.63;2.67;;;;;;;;;;5001653;28;20139;-77
2024/02/20 03:07:15;;;;;;;7.85;2.70;;;;;;;;;;5001393;28;20029;-76
2024/02/20 03:09:43;;;;;;;9.30;2.72;;;;;;;;;;5016260;28;20068;-76
2024/02/20 03:12:11;;;;;;;7.25;2.50;;;;;;;;;;5021563;28;20022;-76
2024/02/20 03:14:37;;;;;;;8.23;2.80;;;;;;;;;;5002094;28;20148;-76
2024/02/20 03:17:07;;;;;;;7.95;2.60;;;;;;;;;;5018591;28;20038;-76
2024/02/20 03:19:35;;;;;;;8.00;2.95;;;;;;;;;;5018985;28;20055;-77
2024/02/20 03:22:03;;;;;;;7.93;3.00;;;;;;;;;;5026620;28;20021;-77
2024/02/20 03:24:30;;;;;;;;;;;;;;;;;;5027894;28;20045;-77
2024/02/20 03:26:58;;;;;;;7.03;2.80;;;;;;;;;;5016599;28;21827;-77
2024/02/20 03:29:25;;;;;;;8.50;3.08;;;;;;;;;;5023385;28;20037;-77
2024/02/20 03:31:53;;;;;;;9.02;2.50;;;;;;;;;;5022771;28;20035;-77
2024/02/20 03:34:20;;;;;;;8.20;2.33;;;;;;;;;;5008384;28;20064;-77
2024/02/20 03:36:47;;;;;;;8.80;2.60;;;;;;;;;;5023535;28;20072;-77
2024/02/20 03:39:16;;;;;;;7.90;2.72;;;;;;;;;;5024015;28;20218;-78
2024/02/20 03:41:42;;;;;;;6.70;2.30;;;;;;;;;;5019517;28;20044;-77
2024/02/20 03:44:08;;;;;;;7.68;2.40;;;;;;;;;;5004064;28;20114;-77
2024/02/20 03:46:34;;;;;;;8.40;2.60;;;;;;;;;;4999700;28;20030;-77
2024/02/20 03:49:00;;;;;;;7.22;2.47;;;;;;;;;;5003268;28;20022;-77
2024/02/20 03:51:28;;;;;;;8.95;2.47;;;;;;;;;;5004964;28;20033;-77
2024/02/20 03:53:55;;;;;;;8.15;2.47;;;;;;;;;;5001925;28;20067;-77
2024/02/20 03:56:22;;;;;;;7.18;2.55;;;;;;;;;;5005920;28;20037;-78
2024/02/20 03:58:50;;;;;;;7.45;2.38;;;;;;;;;;4999450;28;20030;-77
2024/02/20 04:01:16;;;;;;;9.02;2.55;;;;;;;;;;5003601;28;20054;-77
2024/02/20 04:03:43;;;;;;;8.25;2.50;;;;;;;;;;4997752;28;20054;-77
2024/02/20 04:06:11;;;;;;;7.93;2.38;;;;;;;;;;5005782;28;20111;-76
2024/02/20 04:08:38;;;;;;;7.05;2.40;;;;;;;;;;5002807;28;20492;-77
2024/02/20 04:11:04;;;;;;;8.00;2.45;;;;;;;;;;5001896;28;20113;-77
2024/02/20 04:13:33;;;;;;;7.43;2.35;;;;;;;;;;5001745;28;20084;-77
2024/02/20 04:15:59;;;;;;;6.03;2.10;;;;;;;;;;5007266;28;20033;-77
2024/02/20 04:18:25;;;;;;;7.05;2.30;;;;;;;;;;5005203;28;20026;-76
2024/02/20 04:20:52;;;;;;;7.10;2.30;;;;;;;;;;5004537;28;20028;-77
2024/02/20 04:23:19;;;;;;;7.82;2.40;;;;;;;;;;5002065;28;20088;-77
2024/02/20 04:25:45;;;;;;;6.72;2.03;;;;;;;;;;5000851;28;20045;-77
2024/02/20 04:28:11;;;;;;;8.38;2.42;;;;;;;;;;5004370;28;20501;-77
2024/02/20 04:30:44;;;;;;;7.22;2.28;;;;;;;;;;4997760;28;20036;-76
2024/02/20 04:33:11;;;;;;;6.78;2.15;;;;;;;;;;4998812;28;20033;-77
2024/02/20 04:35:38;;;;;;;7.90;2.50;;;;;;;;;;5003015;28;20100;-76
2024/02/20 04:38:06;;;;;;;7.25;2.40;;;;;;;;;;5000479;28;20449;-76
2024/02/20 04:40:32;;;;;;;6.75;2.40;;;;;;;;;;5002038;28;20044;-76
2024/02/20 04:42:59;;;;;;;7.03;2.10;;;;;;;;;;5010247;28;20045;-76
2024/02/20 04:45:25;;;;;;;8.02;2.67;;;;;;;;;;5006120;28;20485;-76
2024/02/20 04:47:53;;;;;;;8.60;2.58;;;;;;;;;;5005149;28;20107;-76
2024/02/20 04:50:19;;;;;;;10.02;2.90;;;;;;;;;;5020007;28;20033;-76
2024/02/20 04:52:47;;;;;;;7.30;2.53;;;;;;;;;;5020575;28;20036;-77
2024/02/20 04:55:13;;;;;;;7.88;2.50;;;;;;;;;;5009827;28;20025;-76
2024/02/20 04:57:46;;;;;;;8.25;2.40;;;;;;;;;;5024338;28;20068;-77
2024/02/20 05:00:14;;;;;;;7.60;2.58;;;;;;;;;;5019977;28;20024;-76
2024/02/20 05:02:42;;;;;;;7.82;2.50;;;;;;;;;;5017704;28;20040;-77
2024/02/20 05:05:09;;;;;;;7.55;2.40;;;;;;;;;;5008266;28;20060;-77
2024/02/20 05:07:36;;;;;;;6.70;2.20;;;;;;;;;;5006648;28;20041;-77
2024/02/20 05:10:06;;;;;;;7.65;2.10;;;;;;;;;;5025503;28;20252;-77
2024/02/20 05:12:33;;;;;;;4.90;1.73;;;;;;;;;;5021603;28;20020;-77
2024/02/20 05:14:59;;;;;;;7.07;1.95;;;;;;;;;;4988156;28;20132;-77
2024/02/20 05:17:27;;;;;;;6.50;1.95;;;;;;;;;;5003829;28;20017;-76
2024/02/20 05:19:55;;;;;;;5.78;1.90;;;;;;;;;;5003466;28;20061;-76
2024/02/20 05:22:22;;;;;;;6.15;1.92;;;;;;;;;;5022179;28;20021;-76
2024/02/20 05:24:50;;;;;;;8.15;2.15;;;;;;;;;;5007469;28;20063;-77
2024/02/20 05:27:17;;;;;;;5.60;1.95;;;;;;;;;;5008506;28;20126;-76
2024/02/20 05:29:43;;;;;;;6.80;2.30;;;;;;;;;;5001745;28;20033;-77
2024/02/20 05:32:11;;;;;;;6.90;2.00;;;;;;;;;;5012590;28;20021;-76
2024/02/20 05:34:37;;;;;;;6.13;2.15;;;;;;;;;;5000652;28;20049;-76
2024/02/20 05:37:06;;;;;;;7.03;2.40;;;;;;;;;;5020995;28;20037;-76
2024/02/20 05:39:32;;;;;;;7.22;2.20;;;;;;;;;;5017646;28;20438;-77
2024/02/20 05:42:01;;;;;;;7.72;2.40;;;;;;;;;;5008440;28;20037;-77
2024/02/20 05:44:28;;;;;;;7.07;2.20;;;;;;;;;;5021194;28;20040;-77
2024/02/20 05:46:55;;;;;;;5.60;2.15;;;;;;;;;;5019820;28;20079;-77
2024/02/20 05:49:22;;;;;;;6.57;2.25;;;;;;;;;;5021856;28;20041;-76
2024/02/20 05:51:49;;;;;;;8.15;2.33;;;;;;;;;;5004522;28;20032;-76
2024/02/20 05:54:16;;;;;;;7.20;2.20;;;;;;;;;;5020186;28;20029;-76
2024/02/20 05:56:43;;;;;;;;;;;;;;;;;;5001565;28;20556;-76
2024/02/20 05:59:10;;;;;;;;;;;;;;;;;;5025539;28;19943;-76
2024/02/20 06:01:38;;;;;;;8.15;3.03;;;;;;;;;;5008693;28;19940;-76
2024/02/20 06:04:05;;;;;;;8.73;3.25;;;;;;;;;;5007521;28;20029;-77
2024/02/20 06:06:34;;;;;;;8.95;3.20;;;;;;;;;;5007419;28;20033;-77
2024/02/20 06:09:02;;;;;;;10.77;2.95;;;;;;;;;;5015954;28;20116;-76
2024/02/20 06:11:30;;;;;;;9.68;2.90;;;;;;;;;;5014158;28;20036;-77
2024/02/20 06:13:57;;;;;;;8.25;2.72;;;;;;;;;;4989491;28;20383;-76
2024/02/20 06:16:25;;;;;;;7.45;2.70;;;;;;;;;;5013805;28;20037;-78
2024/02/20 06:18:53;;;;;;;7.40;2.60;;;;;;;;;;5020179;28;20048;-77
2024/02/20 06:21:23;;;;;;;11.63;2.70;;;;;;;;;;5017319;28;20047;-77
2024/02/20 06:23:51;;;;;;;9.02;3.10;;;;;;;;;;5020699;28;20041;-77
2024/02/20 06:26:20;;;;;;;9.30;2.70;;;;;;;;;;5023096;28;20677;-77
2024/02/20 06:28:46;;;;;;;9.32;2.70;;;;;;;;;;5006937;28;20600;-78
2024/02/20 06:31:14;;;;;;;;;;;;;;;;;;4985223;28;20044;-76
2024/02/20 06:33:45;;;;;;;9.15;2.30;;;;;;;;;;5000976;28;19952;-76
2024/02/20 06:36:13;;;;;;;8.27;2.85;;;;;;;;;;5004532;28;20120;-76
2024/02/20 06:38:39;;;;;;;8.73;3.08;;;;;;;;;;5000713;28;20051;-77
2024/02/20 06:41:06;;;;;;;;;;;;;;;;;;5004246;28;20108;-77
2024/02/20 06:43:37;;;;;;;7.30;2.65;;;;;;;;;;5016562;28;20383;-77
2024/02/20 06:46:03;;;;;;;10.18;2.78;;;;;;;;;;5004327;28;20053;-77
2024/02/20 06:48:32;;;;;;;7.38;2.80;;;;;;;;;;4992836;28;20029;-77
2024/02/20 06:50:58;;;;;;;8.27;3.00;;;;;;;;;;5022461;28;20061;-77
2024/02/20 06:53:25;;;;;;;9.95;3.35;;;;;;;;;;4991334;28;20045;-77
2024/02/20 06:55:53;;;;;;;7.90;2.63;;;;;;;;;;5002803;28;20039;-77
2024/02/20 06:58:20;;;;;;;10.23;3.38;;;;;;;;;;5013613;28;20033;-77
2024/02/20 07:00:48;;;;;;;8.00;2.95;;;;;;;;;;5010946;28;20132;-77
2024/02/20 07:03:14;;;;;;;7.18;2.60;;;;;;;;;;5022160;28;20100;-77
2024/02/20 07:05:41;;;;;;;8.70;3.17;;;;;;;;;;5007080;28;20041;-77
2024/02/20 07:08:07;;;;;;;12.15;3.13;;;;;;;;;;5009013;28;20044;-75
2024/02/20 07:10:35;;;;;;;;;;;;;;;;;;5022536;28;20025;-76
2024/02/20 07:13:01;;;;;;;9.00;3.30;;;;;;;;;;5021419;28;20059;-77
2024/02/20 07:15:27;;;;;;;8.70;3.10;;;;;;;;;;5011899;28;20037;-76
2024/02/20 07:17:53;;;;;;;9.57;3.10;;;;;;;;;;5007339;28;20029;-76
2024/02/20 07:20:22;;;;;;;9.48;3.38;;;;;;;;;;5019142;28;20060;-76
2024/02/20 07:22:50;;;;;;;8.63;3.10;;;;;;;;;;5023161;28;20143;-76
2024/02/20 07:25:21;;;;;;;10.93;3.45;;;;;;;;;;5005975;28;20064;-76
2024/02/20 07:27:48;;;;;;;7.93;3.20;;;;;;;;;;5019034;28;20079;-76
2024/02/20 07:30:17;;;;;;;9.20;3.65;;;;;;;;;;5007010;28;20107;-75
2024/02/20 07:32:43;;;;;;;8.82;3.42;;;;;;;;;;4992190;28;20519;-76
2024/02/20 07:35:10;;;;;;;9.80;3.60;;;;;;;;;;5020177;28;20037;-76
2024/02/20 07:37:38;;;;;;;9.13;3.45;;;;;;;;;;5001628;28;20036;-76
2024/02/20 07:40:08;;;;;;;10.38;4.20;;;;;;;;;;5005433;28;20041;-77
2024/02/20 07:42:36;;;;;;;11.38;4.10;;;;;;;;;;4987418;28;20057;-76
2024/02/20 07:45:03;;;;;;;13.68;6.13;;;;;;;;;;5002409;28;20068;-77
2024/02/20 07:47:31;;;;;;;14.20;5.10;;;;;;;;;;4999172;28;20026;-77
2024/02/20 07:49:57;;;;;;;15.30;4.70;;;;;;;;;;5001267;28;21287;-76
2024/02/20 07:52:23;;;;;;;14.27;4.80;;;;;;;;;;5002896;28;20615;-76
2024/02/20 07:54:50;;;;;;;12.32;4.68;;;;;;;;;;5003199;28;20063;-77
2024/02/20 07:57:16;;;;;;;11.80;4.75;;;;;;;;;;5006432;28;20095;-77
2024/02/20 07:59:42;;;;;;;11.90;4.28;;;;;;;;;;4997970;28;20046;-77
2024/02/20 08:02:09;;;;;;;13.25;4.88;;;;;;;;;;5000915;28;20045;-77
2024/02/20 08:04:38;;;;;;;12.60;4.00;;;;;;;;;;4999834;28;20046;-78
2024/02/20 08:07:08;;;;;;;13.32;4.20;;;;;;;;;;4983880;28;20078;-77
2024/02/20 08:09:35;;;;;;;14.05;4.80;;;;;;;;;;5006586;28;20037;-77
2024/02/20 08:12:01;;;;;;;12.48;5.03;;;;;;;;;;5000698;28;20029;-77
2024/02/20 08:14:27;;;;;;;9.38;4.03;;;;;;;;;;5007488;28;20079;-77
2024/02/20 08:16:54;;;;;;;12.60;4.47;;;;;;;;;;4998371;28;20040;-77
2024/02/20 08:19:22;;;;;;;13.15;5.00;;;;;;;;;;5004019;28;20048;-77
2024/02/20 08:21:49;;;;;;;14.98;4.93;;;;;;;;;;4996766;28;20069;-77
2024/02/20 08:24:16;;;;;;;12.73;4.63;;;;;;;;;;5000161;28;20521;-77
2024/02/20 08:26:43;;;;;;;11.75;4.57;;;;;;;;;;5000171;28;20077;-77
2024/02/20 08:29:12;;;;;;;12.88;4.65;;;;;;;;;;5000009;28;20068;-77
2024/02/20 08:31:42;;;;;;;12.05;4.35;;;;;;;;;;4999133;28;20023;-77
2024/02/20 08:34:10;;;;;;;13.43;4.30;;;;;;;;;;4997316;28;20041;-76
2024/02/20 08:36:38;;;;;;;11.23;4.40;;;;;;;;;;5000946;28;20029;-76
2024/02/20 08:39:04;;;;;;;14.13;4.55;;;;;;;;;;4998148;28;20034;-76
2024/02/20 08:41:32;;;;;;;13.13;4.72;;;;;;;;;;5003473;28;20034;-76
2024/02/20 08:43:58;;;;;;;12.50;4.28;;;;;;;;;;5014457;28;20049;-76
2024/02/20 08:46:24;;;;;;;14.68;4.28;;;;;;;;;;5007643;28;20052;-76
2024/02/20 08:48:51;;;;;;;10.52;3.80;;;;;;;;;;5024241;28;20037;-77
2024/02/20 08:51:17;;;;;;;;;;;;;;;;;;5006325;28;20036;-76
2024/02/20 08:53:45;;;;;;;9.65;3.75;;;;;;;;;;5022993;28;19913;-77
2024/02/20 08:56:12;;;;;;;9.95;3.85;;;;;;;;;;5023966;28;20469;-77
2024/02/20 08:58:38;;;;;;;13.20;3.90;;;;;;;;;;5007154;28;20056;-77
2024/02/20 09:01:04;;;;;;;;;;;;;;;;;;5023560;28;20033;-76
2024/02/20 09:03:32;;;;;;;10.02;3.38;;;;;;;;;;5022921;28;20462;-77
2024/02/20 09:06:01;;;;;;;13.88;4.07;;;;;;;;;;5024252;28;20075;-77
2024/02/20 09:08:29;;;;;;;10.68;3.70;;;;;;;;;;5025955;28;20068;-76
2024/02/20 09:11:03;;;;;;;11.88;3.70;;;;;;;;;;5015112;28;20030;-77
2024/02/20 09:13:29;;;;;;;12.15;4.13;;;;;;;;;;5025304;28;20037;-76
2024/02/20 09:15:55;;;;;;;10.73;4.07;;;;;;;;;;5024085;28;20063;-77
2024/02/20 09:18:24;;;;;;;9.27;3.80;;;;;;;;;;5018662;28;20036;-77
2024/02/20 09:20:50;;;;;;;11.20;3.35;;;;;;;;;;5010344;28;20047;-77
2024/02/20 09:23:18;;;;;;;10.70;3.60;;;;;;;;;;5007687;28;20024;-76
2024/02/20 09:25:46;;;;;;;9.48;3.40;;;;;;;;;;5022453;28;20033;-76
2024/02/20 09:28:13;;;;;;;9.35;3.28;;;;;;;;;;5037249;28;20030;-77
2024/02/20 09:30:40;;;;;;;11.35;3.80;;;;;;;;;;5029323;28;20086;-77
2024/02/20 09:33:07;;;;;;;10.68;3.97;;;;;;;;;;5023018;28;20047;-77
2024/02/20 09:35:35;;;;;;;11.80;3.28;;;;;;;;;;5029565;28;20033;-77
2024/02/20 09:38:02;;;;;;;10.85;4.15;;;;;;;;;;5011728;28;20041;-77
2024/02/20 09:40:28;;;;;;;11.43;4.72;;;;;;;;;;5012403;28;20132;-76
2024/02/20 09:42:59;;;;;;;11.95;5.90;;;;;;;;;;5023308;28;20310;-76
2024/02/20 09:45:27;;;;;;;11.88;5.82;;;;;;;;;;5010068;28;20037;-76
2024/02/20 09:47:55;;;;;;;10.38;4.85;;;;;;;;;;5022142;28;20037;-77
2024/02/20 09:50:24;;;;;;;10.18;4.38;;;;;;;;;;5004646;28;20063;-76
2024/02/20 09:52:55;;;;;;;13.13;4.82;;;;;;;;;;5011560;28;20626;-76
2024/02/20 09:55:24;;;;;;;12.13;4.38;;;;;;;;;;5006659;28;20033;-76
2024/02/20 09:57:54;;;;;;;10.27;3.90;;;;;;;;;;5005095;28;20033;-76
2024/02/20 10:00:23;;;;;;;11.77;4.28;;;;;;;;;;5008517;28;20052;-76
2024/02/20 10:02:53;;;;;;;11.88;4.45;;;;;;;;;;5019818;28;20091;-76
2024/02/20 10:05:19;;;;;;;12.38;4.00;;;;;;;;;;5026891;28;20038;-76
2024/02/20 10:07:51;;;;;;;10.27;3.50;;;;;;;;;;4990223;28;20112;-77
2024/02/20 10:10:17;;;;;;;10.63;4.00;;;;;;;;;;5023037;28;20116;-77
2024/02/20 10:12:44;;;;;;;12.27;4.10;;;;;;;;;;5014106;28;20040;-78
2024/02/20 10:15:11;;;;;;;13.85;4.90;;;;;;;;;;5027757;28;20029;-78
2024/02/20 10:17:39;;;;;;;13.40;4.35;;;;;;;;;;5027676;28;20573;-75
2024/02/20 10:20:16;;;;;;;11.50;3.75;;;;;;;;;;5006121;28;20040;-78
2024/02/20 10:22:43;;;;;;;12.07;4.03;;;;;;;;;;5019931;28;20037;-77
2024/02/20 10:25:12;;;;;;;14.27;4.20;;;;;;;;;;5005583;28;20041;-77
2024/02/20 10:27:39;;;;;;;12.80;3.70;;;;;;;;;;5021819;28;20029;-77
2024/02/20 10:30:11;;;;;;;10.38;3.30;;;;;;;;;;5007437;28;20041;-77
2024/02/20 10:32:44;;;;;;;11.88;3.67;;;;;;;;;;5025534;28;20533;-78
2024/02/20 10:35:10;;;;;;;12.68;3.60;;;;;;;;;;5016604;28;20036;-77
2024/02/20 10:37:36;;;;;;;11.80;3.63;;;;;;;;;;5025851;28;20047;-78
2024/02/20 10:40:11;;;;;;;10.57;3.50;;;;;;;;;;5023096;28;20064;-77
2024/02/20 10:42:39;;;;;;;13.57;3.60;;;;;;;;;;5005145;28;20069;-76
2024/02/20 10:45:10;;;;;;;9.30;3.17;;;;;;;;;;5008906;28;20044;-77
2024/02/20 10:47:44;;;;;;;10.38;3.40;;;;;;;;;;5009847;28;20059;-77
2024/02/20 10:50:12;;;;;;;10.85;3.28;;;;;;;;;;5028451;28;20790;-77
2024/02/20 10:52:40;;;;;;;10.52;2.80;;;;;;;;;;5007466;28;20044;-77
2024/02/20 10:55:11;;;;;;;12.15;3.47;;;;;;;;;;5028584;28;20029;-77
2024/02/20 10:57:40;;;;;;;8.80;2.67;;;;;;;;;;5025626;28;20131;-77
2024/02/20 11:00:09;;;;;;;10.27;2.72;;;;;;;;;;5024656;28;20032;-77
2024/02/20 11:02:40;;;;;;;11.02;3.28;;;;;;;;;;5006017;28;20037;-77
2024/02/20 11:05:16;;;;;;;12.02;2.72;;;;;;;;;;5007528;28;20033;-77
2024/02/20 11:07:46;;;;;;;11.52;3.08;;;;;;;;;;5023434;28;20029;-76
2024/02/20 11:10:19;;;;;;;13.63;2.90;;;;;;;;;;5024902;28;21176;-77
2024/02/20 11:12:46;;;;;;;10.13;2.92;;;;;;;;;;5014911;28;20033;-76
2024/02/20 11:15:21;;;;;;;11.13;3.13;;;;;;;;;;5005460;28;20014;-77
2024/02/20 11:17:48;;;;;;;10.40;2.70;;;;;;;;;;5004121;28;20029;-76
2024/02/20 11:20:21;;;;;;;10.77;3.08;;;;;;;;;;5021967;28;20032;-77
2024/02/20 11:22:49;;;;;;;9.68;2.63;;;;;;;;;;4992346;28;20041;-77
2024/02/20 11:25:32;;;;;;;11.35;2.80;;;;;;;;;;5027228;28;20029;-77
2024/02/20 11:28:01;;;;;;;10.52;2.70;;;;;;;;;;5016061;28;20171;-74
2024/02/20 11:30:30;;;;;;;11.85;2.85;;;;;;;;;;5025900;28;20064;-76
2024/02/20 11:32:57;;;;;;;9.77;2.60;;;;;;;;;;5017272;28;21622;-76
2024/02/20 11:35:30;;;;;;;13.07;3.20;;;;;;;;;;5008992;28;20041;-75
2024/02/20 11:37:58;;;;;;;12.02;2.78;;;;;;;;;;5008217;28;21431;-74
2024/02/20 11:40:25;;;;;;;10.77;2.78;;;;;;;;;;5017675;28;20132;-74
2024/02/20 11:42:57;;;;;;;10.23;2.60;;;;;;;;;;5017108;28;20049;-75
2024/02/20 11:45:25;;;;;;;11.60;3.00;;;;;;;;;;5009480;28;20030;-77
2024/02/20 11:48:04;;;;;;;11.18;2.85;;;;;;;;;;5002366;28;20029;-76
2024/02/20 11:50:34;;;;;;;10.95;2.72;;;;;;;;;;5009157;28;20057;-76
2024/02/20 11:53:01;;;;;;;10.60;2.72;;;;;;;;;;5018130;28;20557;-77
2024/02/20 11:55:29;;;;;;;10.82;3.08;;;;;;;;;;5020936;28;20033;-75
2024/02/20 11:57:57;;;;;;;10.90;2.58;;;;;;;;;;5011129;28;20035;-77
2024/02/20 12:00:26;;;;;;;9.05;2.63;;;;;;;;;;4998947;28;20033;-77
2024/02/20 12:02:53;;;;;;;9.88;2.90;;;;;;;;;;5002043;28;20029;-77
2024/02/20 12:05:24;;;;;;;11.10;3.35;;;;;;;;;;5005452;28;20045;-78
2024/02/20 12:07:54;;;;;;;12.93;4.50;;;;;;;;;;5018569;28;20097;-75
2024/02/20 12:10:22;;;;;;;8.65;3.00;;;;;;;;;;5010893;28;20052;-75
2024/02/20 12:12:51;;;;;;;10.25;2.60;;;;;;;;;;5004909;28;20104;-75
2024/02/20 12:15:17;;;;;;;6.93;2.42;;;;;;;;;;5010913;28;20021;-76
2024/02/20 12:17:44;;;;;;;8.55;2.50;;;;;;;;;;5004952;28;20033;-75
2024/02/20 12:20:11;;;;;;;8.50;2.60;;;;;;;;;;5009259;28;20037;-76
2024/02/20 12:22:41;;;;;;;10.73;2.63;;;;;;;;;;5009837;28;20115;-75
2024/02/20 12:25:11;;;;;;;7.90;2.35;;;;;;;;;;5010730;28;20116;-75
2024/02/20 12:27:38;;;;;;;10.00;2.63;;;;;;;;;;5022930;28;20132;-75
2024/02/20 12:30:07;;;;;;;8.13;1.88;;;;;;;;;;5023624;28;20040;-77
2024/02/20 12:32:34;;;;;;;8.90;2.50;;;;;;;;;;5005897;28;20109;-77
2024/02/20 12:35:02;;;;;;;8.00;1.90;;;;;;;;;;5020837;28;20033;-78
2024/02/20 12:37:29;;;;;;;7.75;2.17;;;;;;;;;;5011294;28;20048;-77
2024/02/20 12:39:55;;;;;;;7.25;1.75;;;;;;;;;;5009810;28;20040;-75
2024/02/20 12:42:22;;;;;;;10.20;2.20;;;;;;;;;;5020978;28;20034;-76
2024/02/20 12:44:51;;;;;;;9.43;1.70;;;;;;;;;;5023034;28;20136;-76
2024/02/20 12:47:20;;;;;;;7.50;1.65;;;;;;;;;;5006007;28;20036;-76
2024/02/20 12:49:47;;;;;;;7.65;1.80;;;;;;;;;;5011060;28;20032;-77
2024/02/20 12:52:13;;;;;;;6.88;1.60;;;;;;;;;;5009082;28;20018;-79
2024/02/20 12:54:41;;;;;;;9.40;1.88;;;;;;;;;;5002015;28;20052;-76
2024/02/20 12:57:08;;;;;;;5.82;1.40;;;;;;;;;;5029311;28;20115;-86
2024/02/20 12:59:35;;;;;;;6.60;1.80;;;;;;;;;;5021833;28;20090;-86
2024/02/20 13:02:01;;;;;;;7.88;2.33;;;;;;;;;;5017651;28;20029;-86
2024/02/20 13:04:28;;;;;;;6.93;2.15;;;;;;;;;;5030637;28;20600;-85
2024/02/20 13:06:55;;;;;;;7.97;2.17;;;;;;;;;;5013027;28;20021;-84
2024/02/20 13:09:22;;;;;;;10.18;2.70;;;;;;;;;;5027465;28;20088;-87
2024/02/20 13:11:48;;;;;;;10.25;2.63;;;;;;;;;;5028988;28;20090;-87
2024/02/20 13:14:15;;;;;;;12.27;2.88;;;;;;;;;;5023888;28;20032;-88
2024/02/20 13:16:45;;;;;;;9.40;2.47;;;;;;;;;;5013272;28;20121;-88
2024/02/20 13:19:11;;;;;;;9.45;3.03;;;;;;;;;;5011191;28;20448;-85
2024/02/20 13:21:38;;;;;;;9.32;3.28;;;;;;;;;;5009387;28;20410;-89
2024/02/20 13:24:07;;;;;;;10.65;3.95;;;;;;;;;;5013138;28;20043;-89
2024/02/20 13:26:34;;;;;;;9.50;3.20;;;;;;;;;;5006187;28;20091;-86
2024/02/20 13:29:03;;;;;;;10.18;2.97;;;;;;;;;;5015953;28;20137;-77
2024/02/20 13:31:29;;;;;;;10.15;2.67;;;;;;;;;;5012994;28;20033;-79
2024/02/20 13:33:56;;;;;;;11.52;2.80;;;;;;;;;;5009122;28;20024;-81
2024/02/20 13:36:22;;;;;;;10.80;2.70;;;;;;;;;;5012357;28;20051;-83
2024/02/20 13:38:51;;;;;;;10.15;2.65;;;;;;;;;;5005464;28;20021;-80
2024/02/20 13:41:22;;;;;;;10.25;2.80;;;;;;;;;;5012370;28;20066;-81
2024/02/20 13:43:48;;;;;;;12.48;2.92;;;;;;;;;;5017087;28;20045;-81
2024/02/20 13:46:14;;;;;;;9.80;2.90;;;;;;;;;;5013686;28;20097;-78
2024/02/20 13:48:40;;;;;;;12.00;2.83;;;;;;;;;;5003758;28;20037;-79
2024/02/20 13:51:06;;;;;;;10.65;2.90;;;;;;;;;;5022969;28;20186;-83
2024/02/20 13:53:33;;;;;;;11.57;3.80;;;;;;;;;;5009508;28;20029;-81
2024/02/20 13:55:59;;;;;;;10.88;3.08;;;;;;;;;;4996786;28;20049;-80
2024/02/20 13:58:27;;;;;;;11.95;3.63;;;;;;;;;;5008299;28;20036;-82
2024/02/20 14:00:53;;;;;;;9.82;2.70;;;;;;;;;;5006521;28;20037;-83
2024/02/20 14:03:20;;;;;;;13.82;3.38;;;;;;;;;;5018857;28;20896;-82
2024/02/20 14:05:49;;;;;;;9.88;2.75;;;;;;;;;;5007812;28;20596;-84
2024/02/20 14:08:15;;;;;;;9.20;2.65;;;;;;;;;;5015692;28;20044;-83
2024/02/20 14:10:44;;;;;;;9.70;2.83;;;;;;;;;;5007686;28;20064;-82
2024/02/20 14:13:12;;;;;;;11.40;2.92;;;;;;;;;;5016309;28;20045;-84
2024/02/20 14:15:39;;;;;;;12.85;3.45;;;;;;;;;;5015898;28;20071;-84
2024/02/20 14:18:06;;;;;;;11.32;3.60;;;;;;;;;;5013387;28;20075;-86
2024/02/20 14:20:34;;;;;;;14.98;2.83;;;;;;;;;;5013096;28;20748;-83
2024/02/20 14:23:04;;;;;;;13.20;3.22;;;;;;;;;;5036594;28;20034;-85
2024/02/20 14:25:32;;;;;;;12.07;3.00;;;;;;;;;;5023919;28;20263;-84
2024/02/20 14:28:00;;;;;;;10.23;3.28;;;;;;;;;;5015096;28;20872;-82
2024/02/20 14:30:30;;;;;;;10.15;2.80;;;;;;;;;;5025080;28;20033;-83
2024/02/20 14:33:00;;;;;;;12.05;3.10;;;;;;;;;;5008355;28;20032;-83
2024/02/20 14:35:27;;;;;;;12.55;3.13;;;;;;;;;;5010107;28;20124;-82
2024/02/20 14:37:56;;;;;;;12.75;3.30;;;;;;;;;;5012237;28;20022;-82
2024/02/20 14:40:24;;;;;;;10.35;2.83;;;;;;;;;;5023947;28;20100;-83